Time;durP1;ratioP1;P1;durP2;ratioP2;P2;SDS_P1;SDS_P2;PMS_P1;PMS_P2;Temp;Humidity;BMP_temperature;BMP_pressure;BME280_temperature;BME280_humidity;BME280_pressure;Samples;Min_cycle;Max_cycle;Signal;HPM_P1;HPM_P2
2020/12/15 00:00:58;;;;;;;20.77;11.63;;;;;;;-1.87;100.00;100688.30;1777827;80;21503;-59
2020/12/15 00:03:26;;;;;;;21.20;12.00;;;;;;;-1.87;100.00;100685.28;1776262;79;21150;-58
2020/12/15 00:05:55;;;;;;;24.90;13.40;;;;;;;-1.86;100.00;100695.04;1735053;80;21135;-58
2020/12/15 00:08:23;;;;;;;25.52;13.78;;;;;;;-1.87;100.00;100696.78;1744094;81;21236;-57
2020/12/15 00:10:51;;;;;;;25.80;14.07;;;;;;;-1.86;100.00;100695.04;1733705;82;21198;-58
2020/12/15 00:13:19;;;;;;;25.02;13.83;;;;;;;-1.87;100.00;100687.84;1736329;80;21195;-57
2020/12/15 00:15:47;;;;;;;28.27;13.20;;;;;;;-1.87;100.00;100690.85;1777178;80;21020;-57
2020/12/15 00:18:16;;;;;;;23.92;13.13;;;;;;;-1.87;100.00;100689.11;1777898;80;20954;-57
2020/12/15 00:20:44;;;;;;;21.23;12.25;;;;;;;-1.87;100.00;100694.23;1774724;80;21212;-59
2020/12/15 00:23:12;;;;;;;29.12;13.38;;;;;;;-1.85;100.00;100682.66;1771063;80;21016;-58
2020/12/15 00:25:41;;;;;;;22.37;11.45;;;;;;;-1.85;100.00;100679.64;1775573;80;21051;-59
2020/12/15 00:28:09;;;;;;;27.58;12.75;;;;;;;-1.83;100.00;100668.84;1778185;79;21237;-58
2020/12/15 00:30:37;;;;;;;22.10;13.08;;;;;;;-1.82;100.00;100668.39;1778505;80;21190;-59
2020/12/15 00:33:05;;;;;;;24.47;13.70;;;;;;;-1.83;100.00;100668.84;1778002;80;21184;-58
2020/12/15 00:35:34;;;;;;;26.60;13.55;;;;;;;-1.81;100.00;100680.27;1777912;80;21193;-57
2020/12/15 00:38:02;;;;;;;22.93;13.25;;;;;;;-1.80;100.00;100686.56;1778125;80;20967;-58
2020/12/15 00:40:30;;;;;;;29.77;14.45;;;;;;;-1.78;100.00;100685.17;1778401;80;21154;-57
2020/12/15 00:42:58;;;;;;;25.27;14.13;;;;;;;-1.77;100.00;100681.27;1777473;80;21076;-57
2020/12/15 00:45:26;;;;;;;28.17;13.83;;;;;;;-1.75;100.00;100675.59;1778297;80;21202;-58
2020/12/15 00:47:55;;;;;;;24.52;14.33;;;;;;;-1.74;100.00;100686.20;1777791;79;20978;-57
2020/12/15 00:50:23;;;;;;;23.40;13.40;;;;;;;-1.71;100.00;100690.28;1777515;80;21133;-58
2020/12/15 00:52:51;;;;;;;24.57;12.70;;;;;;;-1.72;100.00;100684.81;1778878;80;21044;-58
2020/12/15 00:55:20;;;;;;;23.73;13.38;;;;;;;-1.72;100.00;100695.85;1777743;80;21216;-58
2020/12/15 00:57:48;;;;;;;23.70;12.30;;;;;;;-1.73;100.00;100689.56;1776217;80;21213;-57
2020/12/15 01:00:16;;;;;;;29.05;14.33;;;;;;;-1.72;100.00;100697.13;1777904;80;21172;-59
2020/12/15 01:02:44;;;;;;;26.85;13.68;;;;;;;-1.71;100.00;100699.23;1779069;80;21178;-56
2020/12/15 01:05:12;;;;;;;25.40;13.05;;;;;;;-1.67;100.00;100708.80;1774666;80;21157;-58
2020/12/15 01:07:41;;;;;;;24.30;13.45;;;;;;;-1.65;100.00;100705.25;1778346;80;21145;-57
2020/12/15 01:10:10;;;;;;;24.32;12.85;;;;;;;-1.62;100.00;100707.63;1778334;80;21204;-57
2020/12/15 01:12:39;;;;;;;23.00;11.40;;;;;;;-1.61;100.00;100704.15;1778867;80;20984;-57
2020/12/15 01:15:10;;;;;;;23.67;13.22;;;;;;;-1.59;100.00;100704.05;1778577;80;21158;-57
2020/12/15 01:17:39;;;;;;;25.00;12.73;;;;;;;-1.56;100.00;100703.86;1779011;79;21192;-57
2020/12/15 01:20:09;;;;;;;26.48;13.05;;;;;;;-1.56;100.00;100690.62;1778154;80;21180;-58
2020/12/15 01:22:37;;;;;;;26.90;12.80;;;;;;;-1.57;100.00;100684.33;1774772;79;21200;-57
2020/12/15 01:25:11;;;;;;;26.17;12.85;;;;;;;-1.57;100.00;100685.61;1778108;80;21606;-59
2020/12/15 01:27:47;;;;;;;24.07;11.20;;;;;;;-1.58;100.00;100695.48;1776830;80;21067;-59
2020/12/15 01:30:17;;;;;;;26.15;13.72;;;;;;;-1.59;100.00;100701.48;1777693;80;21118;-58
2020/12/15 01:33:04;;;;;;;30.73;15.67;;;;;;;-1.54;100.00;100700.77;1846579;76;27883;-58
2020/12/15 01:35:34;;;;;;;23.05;12.65;;;;;;;-1.52;100.00;100699.73;1767984;77;21498;-58
2020/12/15 01:38:02;;;;;;;22.93;11.78;;;;;;;-1.48;100.00;100699.09;1839282;77;21195;-57
2020/12/15 01:40:31;;;;;;;24.98;13.08;;;;;;;-1.48;100.00;100695.25;1837039;77;20953;-58
2020/12/15 01:43:00;;;;;;;26.35;13.70;;;;;;;-1.45;100.00;100696.35;1837948;77;20914;-57
2020/12/15 01:45:28;;;;;;;25.85;13.13;;;;;;;-1.47;100.00;100695.64;1842953;77;20998;-57
2020/12/15 01:47:57;;;;;;;24.47;12.63;;;;;;;-1.45;100.00;100696.81;1839609;77;20914;-58
2020/12/15 01:50:27;;;;;;;26.80;14.45;;;;;;;-1.47;100.00;100680.30;1828795;77;21605;-60
2020/12/15 01:52:56;;;;;;;25.65;13.62;;;;;;;-1.50;100.00;100677.93;1837541;77;21112;-58
2020/12/15 01:55:24;;;;;;;26.23;13.22;;;;;;;-1.52;100.00;100671.61;1837961;77;20982;-58
2020/12/15 01:57:57;;;;;;;19.35;11.38;;;;;;;-1.54;100.00;100680.31;1842754;77;20914;-58
2020/12/15 02:00:27;;;;;;;24.02;13.43;;;;;;;-1.57;100.00;100684.33;1839754;77;21601;-58
2020/12/15 02:03:14;;;;;;;30.05;16.50;;;;;;;-1.57;100.00;100675.39;1850851;76;27958;-59
2020/12/15 02:05:45;;;;;;;27.10;14.55;;;;;;;-1.61;100.00;100687.53;1809693;79;20944;-56
2020/12/15 02:08:13;;;;;;;27.70;16.00;;;;;;;-1.58;100.00;100686.07;1813889;79;21157;-56
2020/12/15 02:10:42;;;;;;;31.17;18.10;;;;;;;-1.56;100.00;100679.58;1782750;79;21018;-58
2020/12/15 02:13:15;;;;;;;32.70;17.12;;;;;;;-1.59;100.00;100682.31;1812511;78;21529;-57
2020/12/15 02:15:44;;;;;;;28.98;15.90;;;;;;;-1.62;100.00;100692.75;1807029;78;21014;-59
2020/12/15 02:18:13;;;;;;;28.45;14.23;;;;;;;-1.64;100.00;100691.55;1812814;78;20995;-57
2020/12/15 02:20:43;;;;;;;25.95;13.83;;;;;;;-1.65;100.00;100671.20;1810715;78;21396;-57
2020/12/15 02:23:16;;;;;;;24.70;12.88;;;;;;;-1.68;100.00;100655.59;1810612;79;20978;-57
2020/12/15 02:25:45;;;;;;;22.80;12.20;;;;;;;-1.71;100.00;100659.15;1811795;78;20942;-58
2020/12/15 02:28:14;;;;;;;19.57;10.93;;;;;;;-1.73;100.00;100652.05;1807502;78;20940;-59
2020/12/15 02:30:42;;;;;;;23.75;12.13;;;;;;;-1.73;100.00;100649.95;1813681;79;21008;-59
2020/12/15 02:33:12;;;;;;;22.75;12.40;;;;;;;-1.75;100.00;100643.64;1807239;78;21496;-57
2020/12/15 02:35:42;;;;;;;22.30;11.43;;;;;;;-1.77;100.00;100640.37;1812967;79;20986;-59
2020/12/15 02:38:10;;;;;;;22.35;12.55;;;;;;;-1.78;100.00;100630.23;1813625;78;21113;-58
2020/12/15 02:40:39;;;;;;;23.55;14.07;;;;;;;-1.78;100.00;100624.69;1814172;79;21033;-57
2020/12/15 02:43:11;;;;;;;24.35;14.07;;;;;;;-1.80;100.00;100621.39;1813110;79;21080;-58
2020/12/15 02:45:42;;;;;;;27.15;13.60;;;;;;;-1.80;100.00;100634.63;1810110;79;21374;-57
2020/12/15 02:48:12;;;;;;;23.73;12.45;;;;;;;-1.80;100.00;100638.00;1813340;79;21192;-56
2020/12/15 02:50:40;;;;;;;21.82;11.93;;;;;;;-1.79;100.00;100648.58;1812951;79;21019;-59
2020/12/15 02:53:10;;;;;;;22.25;12.25;;;;;;;-1.80;100.00;100648.69;1812189;78;21124;-59
2020/12/15 02:55:40;;;;;;;22.25;12.18;;;;;;;-1.79;100.00;100648.58;1813203;79;21028;-59
2020/12/15 02:58:10;;;;;;;23.90;13.13;;;;;;;-1.80;100.00;100646.95;1813503;79;21377;-58
2020/12/15 03:00:40;;;;;;;19.10;10.53;;;;;;;-1.80;100.00;100658.45;1813773;79;21158;-58
2020/12/15 03:03:08;;;;;;;22.02;11.80;;;;;;;-1.77;100.00;100671.50;1813496;79;21343;-60
2020/12/15 03:05:52;;;;;;;23.17;12.50;;;;;;;-1.72;100.00;100665.19;1856357;76;23263;-56
2020/12/15 03:08:20;;;;;;;21.95;12.58;;;;;;;-1.76;100.00;100652.70;1818167;77;20938;-58
2020/12/15 03:10:49;;;;;;;27.40;12.85;;;;;;;-1.76;100.00;100654.78;1774829;78;21153;-58
2020/12/15 03:13:17;;;;;;;26.85;14.23;;;;;;;-1.78;100.00;100650.67;1803456;78;21060;-59
2020/12/15 03:15:45;;;;;;;27.55;12.58;;;;;;;-1.78;100.00;100648.12;1803588;78;21030;-57
2020/12/15 03:18:15;;;;;;;25.50;13.38;;;;;;;-1.77;100.00;100645.48;1803681;78;20978;-57
2020/12/15 03:20:49;;;;;;;26.82;14.13;;;;;;;-1.76;100.00;100647.58;1803156;78;21033;-56
2020/12/15 03:23:20;;;;;;;24.75;13.35;;;;;;;-1.77;100.00;100645.48;1806295;78;21350;-60
2020/12/15 03:25:52;;;;;;;23.83;13.05;;;;;;;-1.76;100.00;100656.06;1799997;78;21001;-58
2020/12/15 03:28:21;;;;;;;29.25;13.62;;;;;;;-1.76;100.00;100655.25;1770212;80;20962;-60
2020/12/15 03:30:49;;;;;;;25.75;12.93;;;;;;;-1.77;100.00;100649.33;1798936;78;21104;-58
2020/12/15 03:33:18;;;;;;;23.92;12.40;;;;;;;-1.76;100.00;100657.80;1804689;78;21080;-59
2020/12/15 03:35:46;;;;;;;26.95;15.15;;;;;;;-1.77;100.00;100667.21;1770236;80;21197;-58
2020/12/15 03:38:15;;;;;;;29.63;15.15;;;;;;;-1.75;100.00;100674.31;1734138;79;20999;-60
2020/12/15 03:40:45;;;;;;;25.70;13.05;;;;;;;-1.75;100.00;100679.42;1744586;81;21050;-58
2020/12/15 03:43:30;;;;;;;25.60;14.30;;;;;;;-1.76;100.00;100689.29;1740385;81;21172;-59
2020/12/15 03:46:03;;;;;;;27.67;13.25;;;;;;;-1.74;100.00;100692.59;1742108;81;21057;-56
2020/12/15 03:48:32;;;;;;;31.65;16.42;;;;;;;-1.73;100.00;100691.66;1746096;81;21220;-57
2020/12/15 03:51:00;;;;;;;29.23;15.32;;;;;;;-1.73;100.00;100701.06;1746986;81;20994;-58
2020/12/15 03:53:31;;;;;;;28.20;14.38;;;;;;;-1.73;100.00;100695.50;1745262;81;21128;-57
2020/12/15 03:55:59;;;;;;;24.75;12.75;;;;;;;-1.71;100.00;100700.50;1747037;81;21655;-60
2020/12/15 03:58:28;;;;;;;30.72;15.05;;;;;;;-1.72;100.00;100707.35;1747241;81;21056;-60
2020/12/15 04:00:58;;;;;;;33.05;15.53;;;;;;;-1.73;100.00;100712.11;1747524;81;21449;-60
2020/12/15 04:03:27;;;;;;;30.37;14.60;;;;;;;-1.71;100.00;100709.45;1748227;81;21180;-58
2020/12/15 04:06:11;;;;;;;25.37;13.33;;;;;;;-1.67;100.00;100712.64;1795219;78;23325;-56
2020/12/15 04:08:41;;;;;;;27.42;13.72;;;;;;;-1.72;100.00;100715.48;1716154;83;20997;-58
2020/12/15 04:11:11;;;;;;;30.02;13.70;;;;;;;-1.73;100.00;100724.89;1698144;84;21368;-57
2020/12/15 04:13:47;;;;;;;23.10;12.35;;;;;;;-1.75;100.00;100729.25;1694385;84;21074;-58
2020/12/15 04:16:16;;;;;;;27.05;14.03;;;;;;;-1.74;100.00;100727.09;1694602;84;21020;-57
2020/12/15 04:18:46;;;;;;;32.10;14.35;;;;;;;-1.73;100.00;100724.89;1711105;82;21415;-58
2020/12/15 04:21:16;;;;;;;30.25;15.15;;;;;;;-1.72;100.00;100728.27;1687511;84;21044;-59
2020/12/15 04:23:44;;;;;;;29.02;15.63;;;;;;;-1.73;100.00;100732.55;1688811;84;21224;-57
2020/12/15 04:26:14;;;;;;;29.15;13.88;;;;;;;-1.72;100.00;100739.30;1689938;84;21267;-58
2020/12/15 04:28:43;;;;;;;29.15;13.40;;;;;;;-1.71;100.00;100746.05;1687727;83;21074;-59
2020/12/15 04:31:12;;;;;;;24.15;13.38;;;;;;;-1.67;100.00;100742.85;1685166;84;20967;-58
2020/12/15 04:33:40;;;;;;;26.37;13.85;;;;;;;-1.63;100.00;100742.21;1689944;83;21167;-60
2020/12/15 04:36:09;;;;;;;23.30;11.85;;;;;;;-1.60;100.00;100743.30;1739193;82;21109;-58
2020/12/15 04:38:37;;;;;;;27.17;14.05;;;;;;;-1.56;100.00;100738.37;1738898;82;21214;-58
2020/12/15 04:41:08;;;;;;;29.82;13.90;;;;;;;-1.54;100.00;100745.50;1734670;82;21027;-59
2020/12/15 04:43:38;;;;;;;27.58;13.30;;;;;;;-1.52;100.00;100748.31;1687989;82;21122;-59
2020/12/15 04:46:11;;;;;;;27.95;14.35;;;;;;;-1.49;100.00;100756.27;1739466;82;20977;-61
2020/12/15 04:49:06;;;;;;;30.65;15.32;;;;;;;-1.48;100.00;100747.67;1736899;81;21398;-62
2020/12/15 04:52:01;;;;;;;25.57;13.17;;;;;;;-1.40;100.00;100750.61;1843655;76;23314;-61
2020/12/15 04:54:33;;;;;;;26.07;13.88;;;;;;;-1.41;100.00;100750.22;1782939;79;21023;-61
2020/12/15 04:57:03;;;;;;;27.02;15.08;;;;;;;-1.39;100.00;100745.03;1772223;80;22481;-61
2020/12/15 04:59:41;;;;;;;31.53;14.33;;;;;;;-1.33;100.00;100745.45;1854939;76;22685;-60
2020/12/15 05:02:13;;;;;;;18.52;11.85;;;;;;;-1.35;100.00;100754.97;1796975;78;21532;-62
2020/12/15 05:04:42;;;;;;;21.73;12.28;;;;;;;-1.35;100.00;100754.16;1828049;77;21366;-63
2020/12/15 05:07:11;;;;;;;22.27;11.83;;;;;;;-1.37;100.00;100752.95;1830532;77;21002;-62
2020/12/15 05:10:02;;;;;;;25.08;12.25;;;;;;;-1.37;100.00;100754.69;1826515;78;20959;-61
2020/12/15 05:12:43;;;;;;;23.27;11.83;;;;;;;-1.33;100.00;100755.68;1866446;76;22729;-61
2020/12/15 05:15:13;;;;;;;24.23;13.48;;;;;;;-1.40;100.00;100760.83;1836128;77;21022;-61
2020/12/15 05:17:41;;;;;;;21.60;11.75;;;;;;;-1.37;100.00;100756.78;1834165;77;21465;-60
2020/12/15 05:20:26;;;;;;;26.65;13.30;;;;;;;-1.34;100.00;100757.06;1837652;77;20999;-61
2020/12/15 05:22:55;;;;;;;20.65;11.83;;;;;;;-1.36;100.00;100752.06;1834030;77;21536;-60
2020/12/15 05:25:27;;;;;;;17.10;10.58;;;;;;;-1.36;100.00;100750.78;1837868;77;21005;-62
2020/12/15 05:27:57;;;;;;;;;;;;;;;-1.37;100.00;100754.69;1812358;77;20991;-62
2020/12/15 05:30:26;;;;;;;22.65;11.20;;;;;;;-1.40;100.00;100763.39;1836177;77;21130;-64
2020/12/15 05:33:18;;;;;;;19.80;10.70;;;;;;;-1.41;100.00;100770.67;1859763;76;22769;-62
2020/12/15 05:35:54;;;;;;;20.10;9.98;;;;;;;-1.48;100.00;100764.28;1828965;77;21021;-63
2020/12/15 05:38:24;;;;;;;20.08;10.75;;;;;;;-1.50;100.00;100772.06;1838654;77;23609;-64
2020/12/15 05:40:56;;;;;;;17.80;9.08;;;;;;;-1.50;100.00;100755.45;1831751;77;21555;-64
2020/12/15 05:43:28;;;;;;;16.87;9.23;;;;;;;-1.52;100.00;100762.84;1838292;77;20981;-64
2020/12/15 05:45:58;;;;;;;21.15;10.68;;;;;;;-1.57;100.00;100754.63;1833495;77;20954;-63
2020/12/15 05:48:27;;;;;;;22.32;10.18;;;;;;;-1.59;100.00;100760.28;1839119;77;21523;-62
2020/12/15 05:50:57;;;;;;;24.18;12.37;;;;;;;-1.60;100.00;100758.64;1843302;77;21325;-64
2020/12/15 05:53:25;;;;;;;24.70;11.68;;;;;;;-1.60;100.00;100757.37;1834122;77;20965;-64
2020/12/15 05:55:53;;;;;;;21.73;11.85;;;;;;;-1.60;100.00;100760.73;1835910;77;21031;-61
2020/12/15 05:58:21;;;;;;;19.40;11.60;;;;;;;-1.60;100.00;100759.92;1804354;78;20946;-61
2020/12/15 06:00:49;;;;;;;23.18;12.35;;;;;;;-1.61;100.00;100764.68;1838242;77;20966;-61
2020/12/15 06:03:17;;;;;;;37.63;16.67;;;;;;;-1.62;100.00;100772.81;1833656;77;21370;-59
2020/12/15 06:05:47;;;;;;;45.75;20.30;;;;;;;-1.61;100.00;100777.46;1839631;77;21144;-64
2020/12/15 06:08:15;;;;;;;41.80;18.95;;;;;;;-1.60;100.00;100773.98;1837479;77;21140;-60
2020/12/15 06:10:44;;;;;;;35.58;15.03;;;;;;;-1.62;100.00;100773.27;1836197;77;21148;-64
2020/12/15 06:13:13;;;;;;;23.87;13.45;;;;;;;-1.62;100.00;100781.75;1805961;77;21036;-61
2020/12/15 06:15:41;;;;;;;23.18;13.20;;;;;;;-1.61;100.00;100777.46;1838769;77;21353;-63
2020/12/15 06:18:10;;;;;;;27.75;12.23;;;;;;;-1.62;100.00;100775.83;1837996;77;21096;-55
2020/12/15 06:20:39;;;;;;;25.17;13.05;;;;;;;-1.64;100.00;100782.75;1836104;77;20965;-56
2020/12/15 06:23:11;;;;;;;22.70;12.05;;;;;;;-1.64;100.00;100782.75;1841368;77;20956;-55
2020/12/15 06:25:39;;;;;;;20.20;10.32;;;;;;;-1.62;100.00;100787.33;1843815;77;20926;-55
2020/12/15 06:28:11;;;;;;;21.90;11.50;;;;;;;-1.62;100.00;100789.89;1840308;77;21386;-62
2020/12/15 06:30:44;;;;;;;19.80;11.78;;;;;;;-1.62;100.00;100786.05;1837006;77;20982;-62
2020/12/15 06:33:13;;;;;;;;;;;;;;;-1.62;100.00;100789.89;1841468;77;20985;-55
2020/12/15 06:35:45;;;;;;;24.75;13.25;;;;;;;-1.63;100.00;100798.45;1841640;77;20259;-61
2020/12/15 06:38:18;;;;;;;27.82;14.68;;;;;;;-1.64;100.00;100797.62;1836289;77;21001;-56
2020/12/15 06:40:48;;;;;;;27.25;14.78;;;;;;;-1.67;100.00;100810.58;1836374;77;21197;-63
2020/12/15 06:43:27;;;;;;;25.25;13.10;;;;;;;-1.68;100.00;100806.85;1834106;77;21013;-55
2020/12/15 06:46:10;;;;;;;20.05;10.72;;;;;;;-1.71;100.00;100807.38;1837555;77;20971;-61
2020/12/15 06:48:39;;;;;;;23.67;11.55;;;;;;;-1.71;100.00;100811.22;1839092;77;20963;-61
2020/12/15 06:51:07;;;;;;;26.97;12.40;;;;;;;-1.68;100.00;100817.89;1839973;77;21151;-60
2020/12/15 06:53:35;;;;;;;23.25;11.65;;;;;;;-1.68;100.00;100820.91;1840535;77;21198;-54
2020/12/15 06:56:04;;;;;;;26.55;11.88;;;;;;;-1.68;100.00;100824.28;1836599;77;21120;-62
2020/12/15 06:58:32;;;;;;;29.48;12.33;;;;;;;-1.68;100.00;100823.47;1841037;77;21064;-55
2020/12/15 07:01:03;;;;;;;27.15;11.57;;;;;;;-1.71;100.00;100834.22;1836687;77;21033;-64
2020/12/15 07:03:36;;;;;;;24.95;11.43;;;;;;;-1.74;100.00;100829.77;1814944;77;21115;-57
2020/12/15 07:06:14;;;;;;;23.80;11.50;;;;;;;-1.75;100.00;100831.94;1833300;77;21361;-55
2020/12/15 07:08:43;;;;;;;24.43;11.93;;;;;;;-1.75;100.00;100827.64;1835659;77;21430;-55
2020/12/15 07:11:11;;;;;;;29.82;15.88;;;;;;;-1.74;100.00;100834.89;1828841;77;21021;-58
2020/12/15 07:13:39;;;;;;;23.38;11.43;;;;;;;-1.73;100.00;100837.34;1837900;76;20993;-56
2020/12/15 07:16:18;;;;;;;25.97;12.05;;;;;;;-1.68;100.00;100850.30;1839026;77;21163;-55
2020/12/15 07:18:46;;;;;;;26.12;11.95;;;;;;;-1.66;100.00;100844.66;1837100;77;21248;-56
2020/12/15 07:21:14;;;;;;;22.07;11.57;;;;;;;-1.66;100.00;100839.55;1837482;77;21048;-57
2020/12/15 07:23:47;;;;;;;25.10;12.93;;;;;;;-1.68;100.00;100833.69;1756236;78;21021;-56
2020/12/15 07:26:17;;;;;;;22.00;11.43;;;;;;;-1.71;100.00;100842.34;1838625;77;21268;-56
2020/12/15 07:28:46;;;;;;;23.07;12.05;;;;;;;-1.71;100.00;100835.50;1840997;77;21030;-56
2020/12/15 07:31:28;;;;;;;22.22;10.70;;;;;;;-1.72;100.00;100831.31;1835665;77;22001;-56
2020/12/15 07:34:11;;;;;;;21.33;10.72;;;;;;;-1.73;100.00;100838.62;1837430;77;21086;-58
2020/12/15 07:36:41;;;;;;;21.85;11.93;;;;;;;-1.76;100.00;100831.59;1845962;77;21006;-56
2020/12/15 07:39:10;;;;;;;20.20;9.58;;;;;;;-1.79;100.00;100824.91;1841190;77;21184;-58
2020/12/15 07:41:38;;;;;;;23.12;10.88;;;;;;;-1.80;100.00;100832.67;1834951;77;21057;-55
2020/12/15 07:44:11;;;;;;;21.48;10.40;;;;;;;-1.78;100.00;100821.89;1832581;77;21200;-56
2020/12/15 07:46:46;;;;;;;23.87;12.03;;;;;;;-1.75;100.00;100817.42;1839256;77;21281;-56
2020/12/15 07:49:15;;;;;;;26.95;11.50;;;;;;;-1.74;100.00;100820.37;1840378;77;20961;-56
2020/12/15 07:51:43;;;;;;;20.15;11.48;;;;;;;-1.73;100.00;100829.67;1834902;77;20978;-56
2020/12/15 07:54:11;;;;;;;24.98;13.05;;;;;;;-1.72;100.00;100827.94;1840123;77;20981;-56
2020/12/15 07:56:39;;;;;;;27.00;14.45;;;;;;;-1.71;100.00;100835.50;1833274;77;21195;-55
2020/12/15 13:39:34;;;;;;;37.70;20.53;;;;;;;-1.20;100.00;100757.50;1765911;79;22953;-60
2020/12/15 13:42:05;;;;;;;38.00;21.48;;;;;;;-1.13;100.00;100763.89;1756321;81;21044;-57
2020/12/15 13:44:33;;;;;;;46.45;23.45;;;;;;;-1.07;100.00;100758.37;1735932;80;21368;-61
2020/12/15 13:47:04;;;;;;;48.17;23.47;;;;;;;-1.02;100.00;100763.58;1738492;81;20998;-60
2020/12/15 13:49:32;;;;;;;41.45;20.08;;;;;;;-0.96;100.00;100771.77;1739957;81;20946;-58
2020/12/15 13:52:01;;;;;;;50.43;23.45;;;;;;;-0.92;100.00;100775.31;1733544;82;21029;-57
2020/12/15 13:54:31;;;;;;;46.20;23.73;;;;;;;-0.95;100.00;100776.78;1728925;82;21012;-62
2020/12/15 13:56:59;;;;;;;48.00;24.90;;;;;;;-0.96;100.00;100776.89;1748539;82;21296;-56
2020/12/15 13:59:27;;;;;;;46.88;23.98;;;;;;;-0.97;100.00;100779.09;1747535;82;21034;-61
2020/12/15 14:01:55;;;;;;;50.20;26.93;;;;;;;-0.97;100.00;100766.30;1746098;82;20992;-57
2020/12/15 14:04:24;;;;;;;56.77;27.30;;;;;;;-0.96;100.00;100764.91;1748909;82;20979;-57
2020/12/15 14:06:52;;;;;;;53.17;27.05;;;;;;;-0.93;100.00;100772.41;1743591;82;21139;-62
2020/12/15 14:09:20;;;;;;;58.98;28.50;;;;;;;-0.92;100.00;100777.88;1717593;82;21385;-56
2020/12/15 14:11:48;;;;;;;67.47;30.52;;;;;;;-0.90;100.00;100786.76;1745282;82;21160;-57
2020/12/15 14:14:16;;;;;;;55.70;27.50;;;;;;;-0.90;100.00;100793.97;1739888;82;20984;-56
2020/12/15 14:16:46;;;;;;;52.93;25.23;;;;;;;-0.92;100.00;100788.58;1743862;82;20976;-57
2020/12/15 14:19:14;;;;;;;60.48;28.77;;;;;;;-0.94;100.00;100788.69;1749372;82;21107;-62
2020/12/15 14:21:46;;;;;;;59.10;29.00;;;;;;;-0.94;100.00;100805.32;1743799;82;21133;-62
2020/12/15 14:24:16;;;;;;;60.40;28.02;;;;;;;-0.92;100.00;100807.31;1749387;82;21103;-62
2020/12/15 14:26:44;;;;;;;63.85;30.10;;;;;;;-0.91;100.00;100788.93;1744285;82;21132;-62
2020/12/15 14:29:12;;;;;;;63.60;28.80;;;;;;;-0.90;100.00;100808.05;1735914;82;21527;-62
2020/12/15 14:31:42;;;;;;;67.20;29.72;;;;;;;-0.89;100.00;100805.84;1740061;82;21148;-56
2020/12/15 14:34:11;;;;;;;63.78;30.27;;;;;;;-0.89;100.00;100794.33;1750496;82;21190;-62
2020/12/15 14:36:39;;;;;;;59.63;28.20;;;;;;;-0.90;100.00;100791.41;1739563;82;21041;-57
2020/12/15 14:39:07;;;;;;;65.45;28.25;;;;;;;-0.89;100.00;100817.36;1750099;82;21071;-62
2020/12/15 14:41:35;;;;;;;55.15;27.10;;;;;;;-0.90;100.00;100806.77;1742709;82;21156;-56
2020/12/15 14:44:04;;;;;;;64.00;28.00;;;;;;;-0.92;100.00;100793.23;1739045;82;21515;-53
2020/12/15 14:46:32;;;;;;;53.58;27.22;;;;;;;-0.95;100.00;100789.58;1740901;82;21471;-61
2020/12/15 14:49:06;;;;;;;54.65;28.40;;;;;;;-0.95;100.00;100808.77;1743706;82;20964;-55
2020/12/15 14:51:40;;;;;;;57.93;27.90;;;;;;;-0.89;100.00;100796.89;1844759;76;23276;-60
2020/12/15 14:54:08;;;;;;;63.33;29.85;;;;;;;-0.92;100.00;100797.53;1748595;79;21052;-60
2020/12/15 14:56:38;;;;;;;52.35;27.00;;;;;;;-0.92;100.00;100796.25;1713983;83;21223;-55
2020/12/15 14:59:06;;;;;;;51.85;27.85;;;;;;;-0.90;100.00;100806.77;1716039;83;20994;-61
2020/12/15 15:01:34;;;;;;;54.55;26.82;;;;;;;-0.87;100.00;100813.41;1730539;82;20984;-56
2020/12/15 15:04:02;;;;;;;47.70;24.57;;;;;;;-0.86;100.00;100787.74;1771700;80;21061;-56
2020/12/15 15:06:30;;;;;;;45.70;23.73;;;;;;;-0.87;100.00;100786.11;1778694;80;21010;-58
2020/12/15 15:08:59;;;;;;;53.30;27.77;;;;;;;-0.85;100.00;100811.59;1779931;79;21196;-57
2020/12/15 15:11:27;;;;;;;47.00;25.45;;;;;;;-0.81;100.00;100826.66;1779448;80;20972;-58
2020/12/15 15:13:56;;;;;;;42.33;23.55;;;;;;;-0.77;100.00;100819.61;1718888;82;21050;-64
2020/12/15 15:16:24;;;;;;;48.23;24.02;;;;;;;-0.75;100.00;100817.33;1744462;82;20994;-64
2020/12/15 15:18:54;;;;;;;43.55;21.90;;;;;;;-0.72;100.00;100832.11;1706041;83;21040;-65
2020/12/15 15:21:22;;;;;;;45.78;23.18;;;;;;;-0.71;100.00;100827.37;1735968;80;21195;-66
2020/12/15 15:23:51;;;;;;;33.15;17.75;;;;;;;-0.74;100.00;100821.98;1704298;83;21531;-61
2020/12/15 15:26:21;;;;;;;37.40;20.12;;;;;;;-0.75;100.00;100822.44;1706732;81;21140;-63
2020/12/15 15:28:49;;;;;;;36.33;19.45;;;;;;;-0.77;100.00;100814.02;1736181;81;20964;-60
2020/12/15 15:31:17;;;;;;;31.60;18.05;;;;;;;-0.76;100.00;100801.61;1733301;82;20991;-60
2020/12/15 15:33:46;;;;;;;35.50;19.37;;;;;;;-0.76;100.00;100803.33;1777152;79;21347;-62
2020/12/15 15:36:14;;;;;;;40.48;20.82;;;;;;;-0.79;100.00;100813.31;1778647;80;20993;-62
2020/12/15 15:38:42;;;;;;;33.90;18.25;;;;;;;-0.76;100.00;100818.25;1776905;79;21162;-59
2020/12/15 15:41:10;;;;;;;33.08;18.95;;;;;;;-0.72;100.00;100815.47;1783955;80;20971;-61
2020/12/15 15:43:39;;;;;;;32.58;18.45;;;;;;;-0.71;100.00;100816.67;1778844;79;21083;-59
2020/12/15 15:46:07;;;;;;;30.27;18.15;;;;;;;-0.70;100.00;100822.61;1783985;80;21380;-60
2020/12/15 15:48:36;;;;;;;32.17;18.85;;;;;;;-0.70;100.00;100818.31;1768313;80;21037;-60
2020/12/15 15:51:05;;;;;;;27.30;16.32;;;;;;;-0.70;100.00;100820.05;1778941;80;20978;-59
2020/12/15 15:53:33;;;;;;;28.38;14.53;;;;;;;-0.69;100.00;100816.56;1765924;80;21187;-61
2020/12/15 15:56:01;;;;;;;26.55;14.33;;;;;;;-0.69;100.00;100819.13;1726116;82;21014;-60
2020/12/15 15:58:31;;;;;;;27.27;15.25;;;;;;;-0.70;100.00;100814.93;1707471;83;21429;-60
2020/12/15 16:01:00;;;;;;;25.85;15.05;;;;;;;-0.71;100.00;100816.67;1735659;82;21068;-60
2020/12/15 16:03:28;;;;;;;25.10;14.70;;;;;;;-0.70;100.00;100810.63;1781763;80;21011;-60
2020/12/15 16:05:57;;;;;;;23.22;13.13;;;;;;;-0.67;100.00;100813.47;1778183;80;21025;-61
2020/12/15 16:08:25;;;;;;;23.70;13.13;;;;;;;-0.68;100.00;100816.48;1778970;80;21044;-60
2020/12/15 16:10:58;;;;;;;18.07;10.88;;;;;;;-0.66;100.00;100809.52;1764508;80;21264;-60
2020/12/15 16:13:27;;;;;;;23.60;13.80;;;;;;;-0.67;100.00;100798.10;1782190;80;21059;-60
2020/12/15 16:15:55;;;;;;;21.40;11.93;;;;;;;-0.70;100.00;100803.41;1781700;80;21019;-60
2020/12/15 16:18:23;;;;;;;20.45;11.85;;;;;;;-0.71;100.00;100817.14;1779862;79;21191;-61
2020/12/15 16:20:53;;;;;;;19.87;11.63;;;;;;;-0.69;100.00;100820.41;1778770;80;21042;-63
2020/12/15 16:23:21;;;;;;;24.35;13.50;;;;;;;-0.69;100.00;100816.10;1778944;79;21408;-59
2020/12/15 16:25:49;;;;;;;19.80;11.73;;;;;;;-0.69;100.00;100823.78;1779258;80;21026;-58
2020/12/15 16:28:18;;;;;;;16.02;9.38;;;;;;;-0.67;100.00;100823.70;1734755;82;20988;-60
2020/12/15 16:30:46;;;;;;;20.92;12.45;;;;;;;-0.64;100.00;100823.52;1712432;83;21214;-64
2020/12/15 16:33:16;;;;;;;23.20;12.78;;;;;;;-0.63;100.00;100828.98;1755929;81;21519;-58
2020/12/15 16:35:44;;;;;;;20.70;12.88;;;;;;;-0.60;100.00;100824.50;1722521;80;21210;-60
2020/12/15 16:38:13;;;;;;;21.52;13.70;;;;;;;-0.55;100.00;100821.64;1749031;82;20910;-62
2020/12/15 16:40:44;;;;;;;22.22;13.98;;;;;;;-0.54;100.00;100830.49;1724896;82;21160;-60
2020/12/15 16:43:12;;;;;;;21.35;13.70;;;;;;;-0.54;100.00;100827.94;1732079;80;21143;-60
2020/12/15 16:45:42;;;;;;;20.57;12.53;;;;;;;-0.55;100.00;100824.20;1772678;80;21601;-61
2020/12/15 16:48:10;;;;;;;22.13;13.48;;;;;;;-0.55;100.00;100828.05;1775838;79;21149;-62
2020/12/15 16:50:38;;;;;;;22.95;12.30;;;;;;;-0.56;100.00;100825.12;1769773;80;20978;-60
2020/12/15 16:53:08;;;;;;;18.35;10.82;;;;;;;-0.57;100.00;100824.31;1784312;80;21128;-63
2020/12/15 16:55:37;;;;;;;16.97;11.15;;;;;;;-0.57;100.00;100814.50;1778695;80;21146;-62